Nearby METAR Reports

 

YSCB - Canberra (civ/Mi, Australia
Distance from station: NNE 21km
Updated: 20/10/2021 19:00
Partly cloudy
Partly cloudy
 Wind from SE
Wind: SE 15 km/h
Temperature: 14°C
Dew Point: 9°C
Humidity: 72%
Barometer: 1019 hPa
Clouds: Partly cloudy
Visibility: 10 km
Cloud details: Partly cloudy 2134 m
2021/10/20 08:00 YSCB 200800Z AUTO 13008KT 9999 // SCT070 14/09 Q1019
YCOM - Cooma Snowy Mtns, Australia
Distance from station: S 94km
Updated: 20/10/2021 19:00
Overcast
Overcast
 Wind from E
Wind: E 17 km/h
Temperature: 12°C
Dew Point: 8°C
Humidity: 77%
Barometer: 1020 hPa
Clouds: Overcast
Visibility: 10 km
Cloud details: Mostly cloudy 1372 m
Overcast 1829 m
2021/10/20 08:00 YCOM 200800Z AUTO 08009KT 9999 // BKN045 OVC060 12/08 Q1020
 
YSNW - Nowra (aus-Navy), Australia
Distance from station: ENE 140km
Updated: 20/10/2021 19:14
Rain showers, Mostly cloudy
Rain showers, Mostly cloudy
 Wind from S
Wind: S 20 km/h
Temperature: 16°C
Dew Point: 16°C
Humidity: 100%
Barometer: 1017 hPa
Summary: Rain Showers
Clouds: Mostly cloudy
Visibility: 10 km
Cloud details: Partly cloudy 457 m
Mostly cloudy 579 m
Mostly cloudy 792 m
2021/10/20 08:14 YSNW 200814Z AUTO 17011KT 9999 SHRA SCT015 BKN019 BKN026 16/16 Q1017
YSWG - Wagga Wagga(Cv/M, Australia
Distance from station: WNW 153km
Updated: 20/10/2021 19:00
Mostly cloudy
Mostly cloudy
 Wind from E
Wind: E 9 km/h
Temperature: 22°C
Dew Point: 9°C
Humidity: 44%
Barometer: 1015 hPa
Clouds: Mostly cloudy
Visibility: 10 km
Cloud details: Mostly cloudy 1920 m
Mostly cloudy 2347 m
2021/10/20 08:00 YSWG 200800Z AUTO 08005KT 9999 // BKN063 BKN077 22/09 Q1015
 
YMER - Merimbula Arpt, Australia
Distance from station: SSE 177km
Updated: 20/10/2021 19:05
Mostly cloudy
Mostly cloudy
 Wind from S
Wind: S 11 km/h
Temperature: 16°C
Dew Point: 15°C
Humidity: 94%
Barometer: 1020 hPa
Clouds: Mostly cloudy
Visibility: 10 km
Cloud details: Partly cloudy 335 m
Mostly cloudy 457 m
Mostly cloudy 1189 m
2021/10/20 08:05 YMER 200805Z AUTO 17006KT 9999 // SCT011 BKN015 BKN039 16/15 Q1020
YMAY - Albury Airport, Australia
Distance from station: WSW 207km
Updated: 20/10/2021 19:00
Partly cloudy
Partly cloudy
 Wind from SE
Wind: SE 9 km/h
Temperature: 22°C
Dew Point: 11°C
Humidity: 50%
Barometer: 1016 hPa
Clouds: Partly cloudy
Visibility: 10 km
Cloud details: Partly cloudy 2438 m
2021/10/20 08:00 YMAY 200800Z AUTO 14005KT 9999 // SCT080 22/11 Q1016
 
YNAR - Narrandera, Australia
Distance from station: WNW 250km
Updated: 20/10/2021 19:00
Clear
Clear
 Wind from ENE
Wind: ENE 19 km/h
Temperature: 22°C
Dew Point: 9°C
Humidity: 44%
Barometer: 1015 hPa
Clouds: Clear
Visibility: 10 km
2021/10/20 08:00 YNAR 200800Z AUTO 07010KT 9999 // NCD 22/09 Q1015
YSSY - Sydney Intl Airp, Australia
Distance from station: NE 253km
Updated: 20/10/2021 19:00
Mostly cloudy
Mostly cloudy
 Wind from SSE
Wind: SSE 15 km/h
Temperature: 19°C
Dew Point: 13°C
Humidity: 68%
Barometer: 1017 hPa
Clouds: Mostly cloudy
Visibility: 10 km
Cloud details: Mostly cloudy 762 m
2021/10/20 08:00 YSSY 200800Z 15008KT 9999 BKN025 19/13 Q1017
 
YSRI - Richmond (aus-Af, Australia
Distance from station: NE 257km
Updated: 20/10/2021 19:00
Clear
Clear
 Wind from SE
Wind: SE 17 km/h
Temperature: 18°C
Dew Point: 11°C
Humidity: 64%
Barometer: 1016 hPa
Clouds: Clear
Visibility: 10 km
2021/10/20 08:00 YSRI 200800Z AUTO 13009KT 9999 // NCD 18/11 Q1016 RF00.0/000.0
YWGT - Wangaratta Arp, Australia
Distance from station: WSW 274km
Updated: 20/10/2021 19:00
Clear
Clear
 Wind from NNE
Wind: NNE 7 km/h
Temperature: 21°C
Dew Point: 9°C
Humidity: 46%
Barometer: 1015 hPa
Clouds: Clear
Visibility: 10 km
2021/10/20 08:00 YWGT 200800Z AUTO 03004KT 9999 // NCD 21/09 Q1015
 
YGTH - Griffith Arpt, Australia
Distance from station: WNW 308km
Updated: 20/10/2021 19:00
Clear
Clear
 Wind from E
Wind: E 26 km/h
Temperature: 22°C
Dew Point: 9°C
Humidity: 44%
Barometer: 1015 hPa
Clouds: Clear
Visibility: 10 km
2021/10/20 08:00 YGTH 200800Z AUTO 08014KT 9999 // NCD 22/09 Q1015